Time;durP1;ratioP1;P1;durP2;ratioP2;P2;SDS_P1;SDS_P2;PMS_P1;PMS_P2;Temp;Humidity;BMP_temperature;BMP_pressure;BME280_temperature;BME280_humidity;BME280_pressure;Samples;Min_cycle;Max_cycle;Signal;HPM_P1;HPM_P2
2022/01/07 00:01:24;;;;;;;19.95;6.63;;;;;;;;;;5074681;28;20094;-86
2022/01/07 00:03:51;;;;;;;16.23;6.32;;;;;;;;;;5074407;28;20048;-86
2022/01/07 00:06:17;;;;;;;16.20;6.22;;;;;;;;;;5074601;28;20048;-85
2022/01/07 00:08:43;;;;;;;17.25;5.90;;;;;;;;;;5075744;28;20040;-86
2022/01/07 00:11:09;;;;;;;16.38;5.53;;;;;;;;;;5075732;28;20067;-86
2022/01/07 00:13:36;;;;;;;14.80;6.90;;;;;;;;;;5074118;28;20079;-85
2022/01/07 00:16:02;;;;;;;14.15;5.97;;;;;;;;;;5074422;28;20043;-85
2022/01/07 00:18:28;;;;;;;11.93;5.40;;;;;;;;;;5074091;28;20044;-86
2022/01/07 00:20:54;;;;;;;19.10;6.63;;;;;;;;;;5075751;28;20377;-86
2022/01/07 00:23:20;;;;;;;13.38;5.75;;;;;;;;;;5073987;28;20181;-85
2022/01/07 00:25:46;;;;;;;14.45;5.55;;;;;;;;;;5074090;28;20056;-85
2022/01/07 00:28:13;;;;;;;15.80;6.45;;;;;;;;;;5073904;28;20045;-85
2022/01/07 00:30:39;;;;;;;16.77;5.70;;;;;;;;;;5074338;28;20055;-85
2022/01/07 00:33:08;;;;;;;15.23;5.85;;;;;;;;;;5075251;28;20086;-85
2022/01/07 00:35:34;;;;;;;16.52;5.43;;;;;;;;;;5075152;28;20393;-86
2022/01/07 00:38:00;;;;;;;16.98;6.13;;;;;;;;;;5073969;28;20422;-86
2022/01/07 00:40:27;;;;;;;16.58;5.75;;;;;;;;;;5075246;28;20037;-86
2022/01/07 00:42:53;;;;;;;16.15;5.53;;;;;;;;;;5074041;28;20101;-85
2022/01/07 00:45:20;;;;;;;16.85;6.10;;;;;;;;;;5075226;28;20136;-85
2022/01/07 00:47:48;;;;;;;13.30;5.38;;;;;;;;;;5074027;28;20044;-86
2022/01/07 00:50:15;;;;;;;13.98;5.40;;;;;;;;;;5074246;28;20051;-85
2022/01/07 00:52:41;;;;;;;15.48;5.35;;;;;;;;;;5073481;28;20538;-86
2022/01/07 00:55:07;;;;;;;14.95;6.00;;;;;;;;;;5074892;28;20037;-86
2022/01/07 00:57:34;;;;;;;16.65;6.18;;;;;;;;;;5074912;28;20040;-86
2022/01/07 00:59:59;;;;;;;15.43;5.90;;;;;;;;;;5073437;28;20048;-86
2022/01/07 01:02:25;;;;;;;17.20;6.28;;;;;;;;;;5073543;28;20393;-85
2022/01/07 01:04:51;;;;;;;14.93;5.38;;;;;;;;;;5074521;28;20048;-85
2022/01/07 01:07:17;;;;;;;13.13;6.25;;;;;;;;;;5073388;28;20492;-86
2022/01/07 01:09:44;;;;;;;14.00;5.28;;;;;;;;;;5074610;28;20047;-85
2022/01/07 01:12:11;;;;;;;15.40;5.70;;;;;;;;;;5073289;28;20048;-86
2022/01/07 01:14:37;;;;;;;12.63;5.30;;;;;;;;;;5073252;28;20041;-89
2022/01/07 01:17:03;;;;;;;14.27;5.45;;;;;;;;;;5074913;28;20044;-86
2022/01/07 01:19:29;;;;;;;13.45;5.47;;;;;;;;;;5072980;28;20048;-86
2022/01/07 01:21:56;;;;;;;15.25;5.55;;;;;;;;;;5074612;28;20045;-86
2022/01/07 01:24:22;;;;;;;16.08;5.68;;;;;;;;;;5073044;28;20127;-86
2022/01/07 01:26:48;;;;;;;12.48;5.57;;;;;;;;;;5074125;28;20067;-86
2022/01/07 01:29:14;;;;;;;15.07;5.00;;;;;;;;;;5072981;28;20124;-85
2022/01/07 01:31:40;;;;;;;12.60;4.60;;;;;;;;;;5072894;28;20075;-86
2022/01/07 01:34:06;;;;;;;16.38;5.28;;;;;;;;;;5072859;28;20040;-85
2022/01/07 01:36:32;;;;;;;14.68;5.20;;;;;;;;;;5074397;28;20051;-86
2022/01/07 01:38:59;;;;;;;12.60;4.75;;;;;;;;;;5074054;28;20036;-86
2022/01/07 01:41:25;;;;;;;17.27;6.00;;;;;;;;;;5072814;28;20040;-86
2022/01/07 01:43:51;;;;;;;12.55;5.20;;;;;;;;;;5073889;28;20032;-86
2022/01/07 01:46:17;;;;;;;14.38;5.15;;;;;;;;;;5073110;28;20176;-85
2022/01/07 01:48:44;;;;;;;19.67;6.18;;;;;;;;;;5072878;28;20044;-85
2022/01/07 01:51:10;;;;;;;9.82;4.90;;;;;;;;;;5072340;28;20086;-85
2022/01/07 01:53:36;;;;;;;12.75;5.75;;;;;;;;;;5072446;28;20044;-85
2022/01/07 01:56:02;;;;;;;11.48;5.35;;;;;;;;;;5073776;28;20041;-85
2022/01/07 01:58:28;;;;;;;12.00;4.97;;;;;;;;;;5072478;28;20047;-86
2022/01/07 02:00:54;;;;;;;10.77;5.55;;;;;;;;;;5055713;28;20123;-85
2022/01/07 02:03:20;;;;;;;15.73;5.78;;;;;;;;;;5073129;28;20036;-85
2022/01/07 02:05:46;;;;;;;12.23;5.20;;;;;;;;;;5072024;28;20044;-85
2022/01/07 02:08:12;;;;;;;17.15;5.90;;;;;;;;;;5072168;28;20090;-85
2022/01/07 02:10:38;;;;;;;11.50;5.05;;;;;;;;;;5073461;28;20044;-85
2022/01/07 02:13:04;;;;;;;13.98;6.28;;;;;;;;;;5071930;28;20071;-85
2022/01/07 02:15:30;;;;;;;10.43;6.15;;;;;;;;;;5071884;28;20036;-85
2022/01/07 02:17:57;;;;;;;14.05;6.18;;;;;;;;;;5072327;28;20048;-85
2022/01/07 02:20:25;;;;;;;12.25;5.78;;;;;;;;;;5071744;28;20078;-85
2022/01/07 02:22:51;;;;;;;13.43;5.50;;;;;;;;;;5072126;28;20048;-86
2022/01/07 02:25:17;;;;;;;13.38;5.95;;;;;;;;;;5071763;28;20075;-84
2022/01/07 02:27:44;;;;;;;13.30;5.68;;;;;;;;;;5071899;28;20084;-85
2022/01/07 02:30:14;;;;;;;11.25;5.40;;;;;;;;;;5072822;28;20446;-85
2022/01/07 02:32:40;;;;;;;11.73;5.65;;;;;;;;;;5073000;28;20090;-85
2022/01/07 02:35:08;;;;;;;13.85;5.55;;;;;;;;;;5071777;28;20044;-86
2022/01/07 02:37:34;;;;;;;14.82;5.75;;;;;;;;;;5073259;28;20115;-86
2022/01/07 02:40:02;;;;;;;11.82;5.97;;;;;;;;;;5072727;28;20480;-86
2022/01/07 02:42:28;;;;;;;13.90;6.00;;;;;;;;;;5073254;28;20054;-86
2022/01/07 02:44:54;;;;;;;10.90;5.93;;;;;;;;;;5071425;28;20128;-85
2022/01/07 02:47:21;;;;;;;10.80;6.13;;;;;;;;;;5054938;28;20072;-86
2022/01/07 02:49:47;;;;;;;14.65;6.00;;;;;;;;;;5073391;28;20063;-86
2022/01/07 02:52:13;;;;;;;11.65;5.60;;;;;;;;;;5071509;28;20488;-85
2022/01/07 02:54:39;;;;;;;12.20;5.97;;;;;;;;;;5071263;28;20047;-85
2022/01/07 02:57:05;;;;;;;12.25;6.35;;;;;;;;;;5071527;28;20040;-85
2022/01/07 02:59:31;;;;;;;11.80;6.30;;;;;;;;;;5071461;28;20035;-85
2022/01/07 03:01:57;;;;;;;11.85;6.72;;;;;;;;;;5071816;28;20048;-85
2022/01/07 03:04:26;;;;;;;13.70;6.72;;;;;;;;;;5072611;28;20042;-86
2022/01/07 03:06:52;;;;;;;11.57;6.25;;;;;;;;;;5071303;28;20060;-86
2022/01/07 03:09:18;;;;;;;13.02;5.68;;;;;;;;;;5072871;28;20090;-85
2022/01/07 03:11:44;;;;;;;14.82;6.75;;;;;;;;;;5071232;28;20040;-85
2022/01/07 03:14:10;;;;;;;10.85;5.93;;;;;;;;;;5073922;28;20036;-86
2022/01/07 03:16:39;;;;;;;16.83;6.43;;;;;;;;;;5075390;28;20070;-85
2022/01/07 03:19:05;;;;;;;11.07;6.60;;;;;;;;;;5076708;28;20080;-85
2022/01/07 03:21:31;;;;;;;15.00;6.43;;;;;;;;;;5075567;28;20091;-86
2022/01/07 03:23:57;;;;;;;9.98;6.25;;;;;;;;;;5076900;28;20446;-85
2022/01/07 03:26:23;;;;;;;12.25;6.53;;;;;;;;;;5075104;28;20100;-86
2022/01/07 03:28:49;;;;;;;12.52;6.63;;;;;;;;;;5076850;28;20072;-86
2022/01/07 03:31:15;;;;;;;9.18;5.90;;;;;;;;;;5076380;28;20044;-86
2022/01/07 03:33:41;;;;;;;12.05;6.80;;;;;;;;;;5076456;28;20051;-86
2022/01/07 03:36:07;;;;;;;10.40;6.90;;;;;;;;;;5076507;28;20056;-86
2022/01/07 03:38:33;;;;;;;15.40;7.15;;;;;;;;;;5075368;28;20388;-86
2022/01/07 03:40:59;;;;;;;13.00;7.13;;;;;;;;;;5076227;28;20110;-85
2022/01/07 03:43:25;;;;;;;10.55;7.10;;;;;;;;;;5076507;28;20039;-86
2022/01/07 03:45:51;;;;;;;11.45;6.78;;;;;;;;;;5075058;28;20127;-86
2022/01/07 03:48:17;;;;;;;13.80;6.82;;;;;;;;;;5076374;28;20506;-86
2022/01/07 03:50:43;;;;;;;14.90;7.57;;;;;;;;;;5074749;28;20045;-86
2022/01/07 03:53:09;;;;;;;13.88;6.85;;;;;;;;;;5075963;28;20047;-85
2022/01/07 03:55:35;;;;;;;11.73;7.13;;;;;;;;;;5074854;28;20120;-86
2022/01/07 03:58:02;;;;;;;13.52;6.55;;;;;;;;;;5074752;28;20040;-86
2022/01/07 04:00:33;;;;;;;12.35;6.93;;;;;;;;;;5074410;28;20056;-86
2022/01/07 04:03:07;;;;;;;13.32;6.82;;;;;;;;;;5076076;28;20040;-86
2022/01/07 04:05:33;;;;;;;11.48;7.63;;;;;;;;;;5074417;28;20395;-86
2022/01/07 04:07:59;;;;;;;10.55;7.10;;;;;;;;;;5076057;28;20041;-85
2022/01/07 04:10:25;;;;;;;12.60;7.32;;;;;;;;;;5074490;28;20119;-86
2022/01/07 04:12:52;;;;;;;12.98;6.85;;;;;;;;;;5075944;28;20102;-86
2022/01/07 04:15:18;;;;;;;12.57;7.20;;;;;;;;;;5075698;28;20432;-86
2022/01/07 04:17:45;;;;;;;9.15;6.47;;;;;;;;;;5075603;28;20438;-86
2022/01/07 04:20:13;;;;;;;11.93;7.25;;;;;;;;;;5074440;28;20047;-86
2022/01/07 04:22:39;;;;;;;13.55;7.18;;;;;;;;;;5074024;28;20036;-86
2022/01/07 04:25:07;;;;;;;13.57;7.60;;;;;;;;;;5073790;28;20067;-85
2022/01/07 04:27:33;;;;;;;11.57;7.22;;;;;;;;;;5075245;28;20604;-85
2022/01/07 04:29:59;;;;;;;11.23;6.70;;;;;;;;;;5074195;28;20044;-85
2022/01/07 04:32:25;;;;;;;13.98;7.10;;;;;;;;;;5075443;28;20049;-85
2022/01/07 04:34:51;;;;;;;12.88;7.18;;;;;;;;;;5074097;28;20045;-86
2022/01/07 04:37:17;;;;;;;11.13;6.32;;;;;;;;;;5075222;28;20045;-85
2022/01/07 04:39:44;;;;;;;11.07;6.95;;;;;;;;;;5074046;28;20086;-85
2022/01/07 04:42:10;;;;;;;14.30;6.80;;;;;;;;;;5073706;28;20082;-86
2022/01/07 04:44:40;;;;;;;11.38;6.28;;;;;;;;;;5074116;28;20062;-86
2022/01/07 04:47:07;;;;;;;10.27;6.75;;;;;;;;;;5073707;28;20048;-86
2022/01/07 04:49:33;;;;;;;15.10;7.22;;;;;;;;;;5075195;28;20037;-86
2022/01/07 04:51:59;;;;;;;12.80;6.40;;;;;;;;;;5075016;28;20044;-85
2022/01/07 04:54:25;;;;;;;10.98;6.65;;;;;;;;;;5075154;28;20041;-85
2022/01/07 04:56:51;;;;;;;11.20;6.65;;;;;;;;;;5074800;28;20047;-86
2022/01/07 04:59:17;;;;;;;11.32;7.03;;;;;;;;;;5073972;28;20543;-85
2022/01/07 05:01:43;;;;;;;9.90;6.10;;;;;;;;;;5074861;28;20037;-86
2022/01/07 05:04:09;;;;;;;12.88;6.50;;;;;;;;;;5074629;28;20507;-86
2022/01/07 05:06:44;;;;;;;13.18;6.93;;;;;;;;;;5073658;28;20041;-86
2022/01/07 05:09:12;;;;;;;14.90;6.68;;;;;;;;;;5075101;28;20396;-86
2022/01/07 05:11:38;;;;;;;9.40;6.20;;;;;;;;;;5073181;28;20554;-86
2022/01/07 05:14:04;;;;;;;16.20;7.25;;;;;;;;;;5073231;28;20049;-85
2022/01/07 05:16:30;;;;;;;14.95;6.93;;;;;;;;;;5074316;28;20499;-86
2022/01/07 05:18:57;;;;;;;12.48;6.55;;;;;;;;;;5073536;28;20040;-86
2022/01/07 05:21:23;;;;;;;9.82;6.78;;;;;;;;;;5073029;28;20036;-86
2022/01/07 05:23:49;;;;;;;11.65;6.15;;;;;;;;;;5074379;28;20124;-86
2022/01/07 05:26:15;;;;;;;10.52;6.10;;;;;;;;;;5072852;28;20110;-85
2022/01/07 05:28:41;;;;;;;11.48;6.60;;;;;;;;;;5073024;28;20080;-85
2022/01/07 05:31:07;;;;;;;9.38;6.43;;;;;;;;;;5073143;28;20059;-86
2022/01/07 05:33:33;;;;;;;10.98;6.18;;;;;;;;;;5072884;28;20044;-85
2022/01/07 05:35:59;;;;;;;9.43;5.57;;;;;;;;;;5073097;28;20069;-86
2022/01/07 05:38:25;;;;;;;10.30;6.35;;;;;;;;;;5073430;28;20043;-85
2022/01/07 05:40:51;;;;;;;10.77;6.00;;;;;;;;;;5074352;28;20045;-85
2022/01/07 05:43:17;;;;;;;9.65;5.75;;;;;;;;;;5074830;28;20566;-86
2022/01/07 05:45:45;;;;;;;10.40;5.90;;;;;;;;;;5074269;28;20123;-87
2022/01/07 05:48:11;;;;;;;9.73;6.03;;;;;;;;;;5072393;28;20540;-85
2022/01/07 05:50:37;;;;;;;9.90;5.47;;;;;;;;;;5072981;28;20137;-85
2022/01/07 05:53:04;;;;;;;10.32;6.18;;;;;;;;;;5055614;28;20072;-85
2022/01/07 05:55:29;;;;;;;8.93;5.63;;;;;;;;;;5056116;28;20040;-86
2022/01/07 05:57:55;;;;;;;9.40;5.72;;;;;;;;;;5072564;28;20039;-86
2022/01/07 06:00:21;;;;;;;10.85;6.07;;;;;;;;;;5072601;28;20541;-86
2022/01/07 06:02:47;;;;;;;10.60;6.00;;;;;;;;;;5072307;28;20053;-86
2022/01/07 06:05:13;;;;;;;10.70;6.00;;;;;;;;;;5072675;28;20050;-86
2022/01/07 06:07:39;;;;;;;9.02;5.72;;;;;;;;;;5071958;28;20476;-85
2022/01/07 06:10:06;;;;;;;10.35;5.68;;;;;;;;;;5085633;28;20050;-84
2022/01/07 06:12:32;;;;;;;12.05;5.88;;;;;;;;;;5093609;28;20036;-85
2022/01/07 06:14:58;;;;;;;9.95;5.65;;;;;;;;;;5092313;28;20042;-85
2022/01/07 06:17:24;;;;;;;9.85;5.85;;;;;;;;;;5093687;28;20040;-85
2022/01/07 06:19:50;;;;;;;9.75;5.63;;;;;;;;;;5093778;28;20043;-85
2022/01/07 06:22:16;;;;;;;8.48;5.32;;;;;;;;;;5092197;28;20082;-84
2022/01/07 06:24:42;;;;;;;9.95;6.13;;;;;;;;;;5092183;28;20074;-86
2022/01/07 06:27:09;;;;;;;11.15;5.97;;;;;;;;;;5091901;28;20040;-85
2022/01/07 06:29:35;;;;;;;10.13;5.68;;;;;;;;;;5092078;28;20051;-85
2022/01/07 06:32:01;;;;;;;9.50;5.70;;;;;;;;;;5093309;28;20051;-85
2022/01/07 06:34:27;;;;;;;9.70;6.03;;;;;;;;;;5093203;28;20031;-89
2022/01/07 06:36:53;;;;;;;9.93;6.20;;;;;;;;;;5091720;28;20040;-84
2022/01/07 06:39:20;;;;;;;9.77;5.45;;;;;;;;;;5091963;28;20046;-84
2022/01/07 06:41:50;;;;;;;9.65;5.45;;;;;;;;;;5074873;28;20040;-85
2022/01/07 06:44:16;;;;;;;10.55;6.47;;;;;;;;;;5092173;28;20040;-87
2022/01/07 06:46:42;;;;;;;8.65;6.07;;;;;;;;;;5091830;28;20040;-85
2022/01/07 06:49:08;;;;;;;8.02;5.40;;;;;;;;;;5091619;28;20072;-84
2022/01/07 06:51:34;;;;;;;10.90;5.53;;;;;;;;;;5093125;28;20078;-86
2022/01/07 06:54:00;;;;;;;10.52;5.75;;;;;;;;;;5091534;28;20044;-86
2022/01/07 06:56:28;;;;;;;10.77;5.88;;;;;;;;;;5091804;28;20044;-86
2022/01/07 06:58:54;;;;;;;10.45;6.55;;;;;;;;;;5074813;28;20075;-85
2022/01/07 07:01:20;;;;;;;10.73;6.38;;;;;;;;;;5093177;28;20158;-86
2022/01/07 07:03:47;;;;;;;10.55;6.15;;;;;;;;;;5091206;28;20075;-86
2022/01/07 07:06:13;;;;;;;8.80;5.78;;;;;;;;;;5093021;28;20177;-86
2022/01/07 07:08:39;;;;;;;9.07;6.00;;;;;;;;;;5091304;28;20084;-86
2022/01/07 07:11:06;;;;;;;9.68;6.55;;;;;;;;;;5091401;28;20081;-86
2022/01/07 07:13:32;;;;;;;9.90;6.00;;;;;;;;;;5091387;28;20044;-85
2022/01/07 07:15:58;;;;;;;8.90;6.20;;;;;;;;;;5092985;28;20047;-84
2022/01/07 07:18:24;;;;;;;9.50;5.78;;;;;;;;;;5092462;28;20041;-86
2022/01/07 07:20:50;;;;;;;11.48;6.72;;;;;;;;;;5091532;28;20036;-86
2022/01/07 07:23:16;;;;;;;11.32;6.95;;;;;;;;;;5091126;28;20042;-86
2022/01/07 07:25:42;;;;;;;10.57;6.65;;;;;;;;;;5091329;28;20059;-86
2022/01/07 07:28:08;;;;;;;9.50;5.90;;;;;;;;;;5091204;28;20060;-86
2022/01/07 07:30:38;;;;;;;11.13;6.10;;;;;;;;;;5091340;28;20044;-86
2022/01/07 07:38:43;;;;;;;12.30;6.90;;;;;;;;;;5092492;28;20044;-86
2022/01/07 07:41:12;;;;;;;10.70;7.13;;;;;;;;;;5093844;28;20093;-86
2022/01/07 07:43:39;;;;;;;10.75;6.50;;;;;;;;;;5090943;28;20527;-85
2022/01/07 07:46:05;;;;;;;10.27;6.80;;;;;;;;;;5092617;28;20531;-85
2022/01/07 07:48:32;;;;;;;9.95;6.95;;;;;;;;;;5090987;28;20072;-86
2022/01/07 07:50:58;;;;;;;9.35;6.63;;;;;;;;;;5091190;28;20079;-85
2022/01/07 07:53:24;;;;;;;11.15;6.75;;;;;;;;;;5090671;28;20080;-84
2022/01/07 07:55:53;;;;;;;11.98;7.57;;;;;;;;;;5092689;28;20036;-85
2022/01/07 07:58:22;;;;;;;12.73;7.75;;;;;;;;;;5074022;28;20036;-85
2022/01/07 08:00:49;;;;;;;11.95;7.82;;;;;;;;;;5092976;28;20051;-85
2022/01/07 08:03:15;;;;;;;13.98;8.40;;;;;;;;;;5096034;28;20100;-85
2022/01/07 08:05:41;;;;;;;18.48;8.40;;;;;;;;;;5094917;28;20091;-85
2022/01/07 08:08:07;;;;;;;13.65;8.00;;;;;;;;;;5095798;28;20040;-85
2022/01/07 08:10:33;;;;;;;13.05;8.77;;;;;;;;;;5094742;28;20044;-85
2022/01/07 08:18:15;;;;;;;12.43;9.07;;;;;;;;;;5096160;28;20464;-86
2022/01/07 08:20:41;;;;;;;14.57;9.38;;;;;;;;;;5094693;28;20036;-86
2022/01/07 08:23:07;;;;;;;15.23;9.30;;;;;;;;;;5094300;28;20055;-86
2022/01/07 08:25:33;;;;;;;15.02;9.75;;;;;;;;;;5094365;28;20380;-86
2022/01/07 08:28:02;;;;;;;17.63;9.98;;;;;;;;;;5095524;28;20052;-85
2022/01/07 08:30:35;;;;;;;14.05;9.18;;;;;;;;;;5077691;28;20048;-87
2022/01/07 08:35:46;;;;;;;15.82;10.35;;;;;;;;;;5095549;28;20036;-87
2022/01/07 08:38:12;;;;;;;15.73;9.93;;;;;;;;;;5094021;28;20040;-85
2022/01/07 08:40:38;;;;;;;21.48;10.23;;;;;;;;;;5094544;28;20059;-85
2022/01/07 08:43:04;;;;;;;17.50;10.60;;;;;;;;;;5093933;28;20044;-86
2022/01/07 08:45:30;;;;;;;16.95;10.63;;;;;;;;;;5095383;28;20035;-86
2022/01/07 08:47:56;;;;;;;16.67;11.32;;;;;;;;;;5094075;28;20032;-86
2022/01/07 08:50:23;;;;;;;17.67;11.30;;;;;;;;;;5093842;28;20047;-85
2022/01/07 08:52:50;;;;;;;18.58;11.00;;;;;;;;;;5093859;28;20042;-85
2022/01/07 08:55:16;;;;;;;21.63;11.45;;;;;;;;;;5093828;28;20084;-85
2022/01/07 08:57:42;;;;;;;19.52;12.63;;;;;;;;;;5077081;28;20035;-85
2022/01/07 09:00:08;;;;;;;18.75;11.75;;;;;;;;;;5093846;28;20399;-85
2022/01/07 09:02:34;;;;;;;18.40;11.82;;;;;;;;;;5093696;28;20403;-85
2022/01/07 09:05:00;;;;;;;21.83;12.13;;;;;;;;;;5092513;28;20040;-86
2022/01/07 09:07:26;;;;;;;17.42;12.32;;;;;;;;;;5093861;28;20050;-85
2022/01/07 09:09:52;;;;;;;23.00;13.23;;;;;;;;;;5093698;28;20090;-85
2022/01/07 09:12:18;;;;;;;23.25;12.82;;;;;;;;;;5092486;28;20495;-86
2022/01/07 09:14:45;;;;;;;19.17;12.60;;;;;;;;;;5093291;28;20440;-85
2022/01/07 09:17:11;;;;;;;27.15;14.15;;;;;;;;;;5093761;28;20032;-85
2022/01/07 09:19:37;;;;;;;21.02;13.27;;;;;;;;;;5094826;28;20131;-85
2022/01/07 09:22:03;;;;;;;19.90;12.93;;;;;;;;;;5093431;28;20039;-85
2022/01/07 09:24:29;;;;;;;18.83;12.95;;;;;;;;;;5093382;28;20128;-86
2022/01/07 09:26:55;;;;;;;23.58;13.68;;;;;;;;;;5093166;28;20483;-85
2022/01/07 09:29:23;;;;;;;25.27;14.00;;;;;;;;;;5093188;28;20039;-85
2022/01/07 09:31:49;;;;;;;21.88;12.93;;;;;;;;;;5093128;28;20062;-86
2022/01/07 09:34:15;;;;;;;23.17;13.77;;;;;;;;;;5092796;28;20036;-85
2022/01/07 09:36:41;;;;;;;22.50;13.43;;;;;;;;;;5094596;28;20129;-85
2022/01/07 09:39:08;;;;;;;20.88;13.50;;;;;;;;;;5092885;28;20410;-85
2022/01/07 09:41:34;;;;;;;22.75;14.48;;;;;;;;;;5092976;28;20039;-85
2022/01/07 09:44:01;;;;;;;23.05;13.27;;;;;;;;;;5094264;28;20036;-84
2022/01/07 09:46:27;;;;;;;22.80;14.15;;;;;;;;;;5093163;28;20051;-86
2022/01/07 09:48:53;;;;;;;24.13;13.18;;;;;;;;;;5093983;28;20040;-85
2022/01/07 09:51:19;;;;;;;23.48;13.88;;;;;;;;;;5093147;28;20051;-85
2022/01/07 09:53:45;;;;;;;27.05;13.77;;;;;;;;;;5092500;28;20047;-85
2022/01/07 09:56:12;;;;;;;22.05;13.45;;;;;;;;;;5094114;28;20039;-85
2022/01/07 09:58:38;;;;;;;25.52;13.52;;;;;;;;;;5094182;28;20040;-85
2022/01/07 10:01:06;;;;;;;22.35;13.05;;;;;;;;;;5093943;28;20032;-84
2022/01/07 10:03:40;;;;;;;26.40;14.05;;;;;;;;;;5092477;28;20048;-85
2022/01/07 10:06:16;;;;;;;22.63;13.82;;;;;;;;;;5092301;28;20055;-86
2022/01/07 10:08:42;;;;;;;24.63;13.35;;;;;;;;;;5092518;28;20488;-85
2022/01/07 10:11:11;;;;;;;14.38;10.20;;;;;;;;;;5092414;28;20059;-85
2022/01/07 10:13:37;;;;;;;16.73;10.57;;;;;;;;;;5094894;28;20101;-87
2022/01/07 10:16:13;;;;;;;14.43;9.77;;;;;;;;;;5093380;28;20040;-86
2022/01/07 10:18:39;;;;;;;15.50;10.00;;;;;;;;;;5093809;28;20119;-85
2022/01/07 10:21:09;;;;;;;17.92;10.38;;;;;;;;;;5092061;28;20067;-85
2022/01/07 10:23:35;;;;;;;16.20;10.23;;;;;;;;;;5093365;28;20044;-86
2022/01/07 10:26:01;;;;;;;17.60;11.23;;;;;;;;;;5093091;28;20048;-85
2022/01/07 10:28:31;;;;;;;18.67;11.13;;;;;;;;;;5092168;28;20082;-86
2022/01/07 10:31:02;;;;;;;17.60;8.77;;;;;;;;;;5091946;28;20065;-85
2022/01/07 10:35:55;;;;;;;10.73;5.72;;;;;;;;;;5110801;27;20902;-84
2022/01/07 10:38:23;;;;;;;11.27;4.28;;;;;;;;;;5092386;28;20092;-84
2022/01/07 10:40:50;;;;;;;9.40;3.85;;;;;;;;;;5143796;27;20040;-84
2022/01/07 10:43:21;;;;;;;9.25;4.47;;;;;;;;;;5110787;28;20043;-84
2022/01/07 10:45:49;;;;;;;8.88;3.83;;;;;;;;;;5109203;28;20044;-84
2022/01/07 10:48:15;;;;;;;7.18;3.05;;;;;;;;;;5109184;28;20126;-85
2022/01/07 10:50:49;;;;;;;6.35;2.10;;;;;;;;;;5109044;28;20122;-84
2022/01/07 10:53:14;;;;;;;5.88;2.17;;;;;;;;;;5110518;28;20043;-85
2022/01/07 10:55:40;;;;;;;6.72;2.65;;;;;;;;;;5108908;28;20550;-84
2022/01/07 10:58:06;;;;;;;10.02;3.45;;;;;;;;;;5109273;28;20574;-84
2022/01/07 11:00:36;;;;;;;7.38;3.63;;;;;;;;;;5108760;28;20044;-84
2022/01/07 11:03:07;;;;;;;6.22;2.90;;;;;;;;;;5109108;28;20123;-84
2022/01/07 11:05:33;;;;;;;6.55;3.40;;;;;;;;;;5108588;28;20039;-84
2022/01/07 11:08:00;;;;;;;8.60;3.47;;;;;;;;;;5110315;28;20036;-84
2022/01/07 11:10:28;;;;;;;7.25;3.85;;;;;;;;;;5108545;28;20406;-85
2022/01/07 11:12:54;;;;;;;8.77;4.10;;;;;;;;;;5108591;28;20534;-86
2022/01/07 11:15:20;;;;;;;7.97;3.70;;;;;;;;;;5108361;28;20039;-84
2022/01/07 11:17:46;;;;;;;9.02;4.03;;;;;;;;;;5108700;28;20120;-84
2022/01/07 11:20:14;;;;;;;8.32;3.78;;;;;;;;;;5108542;28;20118;-84
2022/01/07 11:22:42;;;;;;;7.75;4.18;;;;;;;;;;5091502;28;20036;-84
2022/01/07 11:25:10;;;;;;;9.60;4.35;;;;;;;;;;5109808;28;20043;-84
2022/01/07 11:27:54;;;;;;;13.23;5.55;;;;;;;;;;5091498;28;20047;-84
2022/01/07 11:30:22;;;;;;;14.77;5.57;;;;;;;;;;5108479;28;20051;-84
2022/01/07 11:32:48;;;;;;;10.90;5.72;;;;;;;;;;5109536;28;20549;-85
2022/01/07 11:35:18;;;;;;;11.88;6.68;;;;;;;;;;5107755;28;20052;-85
2022/01/07 11:37:45;;;;;;;11.10;6.50;;;;;;;;;;5108310;28;20044;-87
2022/01/07 11:40:27;;;;;;;16.40;6.85;;;;;;;;;;5108301;28;20052;-85
2022/01/07 11:42:53;;;;;;;13.70;7.35;;;;;;;;;;5108562;28;20040;-85
2022/01/07 11:45:34;;;;;;;14.77;6.90;;;;;;;;;;5106282;28;20044;-84
2022/01/07 11:48:09;;;;;;;14.05;6.78;;;;;;;;;;5094556;28;20048;-84
2022/01/07 11:50:47;;;;;;;16.30;7.65;;;;;;;;;;5094309;28;20044;-84
2022/01/07 11:53:14;;;;;;;14.73;7.65;;;;;;;;;;5095614;28;20040;-83
2022/01/07 11:55:40;;;;;;;15.35;7.90;;;;;;;;;;5095373;28;20063;-85
2022/01/07 11:58:07;;;;;;;12.55;6.65;;;;;;;;;;5094457;28;20311;-84
2022/01/07 12:00:52;;;;;;;15.13;7.75;;;;;;;;;;5094393;28;20040;-84
2022/01/07 12:03:30;;;;;;;15.98;7.47;;;;;;;;;;5096089;28;20105;-85
2022/01/07 12:05:56;;;;;;;14.43;8.07;;;;;;;;;;5095135;28;20043;-84
2022/01/07 12:08:41;;;;;;;13.35;8.32;;;;;;;;;;5094016;28;20044;-85
2022/01/07 12:11:10;;;;;;;13.90;8.43;;;;;;;;;;5093929;28;20067;-83
2022/01/07 12:13:40;;;;;;;22.80;9.48;;;;;;;;;;5094045;28;20052;-84
2022/01/07 12:16:09;;;;;;;18.35;9.05;;;;;;;;;;5093925;28;20044;-84
2022/01/07 12:18:35;;;;;;;18.98;9.15;;;;;;;;;;5095124;28;20537;-85
2022/01/07 12:21:02;;;;;;;17.52;9.10;;;;;;;;;;5095153;28;20123;-85
2022/01/07 12:23:28;;;;;;;21.08;9.80;;;;;;;;;;5093854;28;20055;-85
2022/01/07 12:25:55;;;;;;;14.60;7.97;;;;;;;;;;5093489;28;20043;-84
2022/01/07 12:28:21;;;;;;;16.25;8.98;;;;;;;;;;5093980;28;20123;-85
2022/01/07 12:30:49;;;;;;;15.95;9.52;;;;;;;;;;5093788;28;20047;-85
2022/01/07 12:33:16;;;;;;;17.52;9.25;;;;;;;;;;5093924;28;20044;-84
2022/01/07 12:35:42;;;;;;;16.88;8.93;;;;;;;;;;5093133;28;20044;-85
2022/01/07 12:38:15;;;;;;;13.40;5.43;;;;;;;;;;5093741;28;20052;-84
2022/01/07 12:40:42;;;;;;;12.10;5.30;;;;;;;;;;5093233;28;20570;-84
2022/01/07 12:43:08;;;;;;;11.13;5.40;;;;;;;;;;5093562;28;20085;-84
2022/01/07 12:45:34;;;;;;;11.38;3.40;;;;;;;;;;5076253;28;20075;-83
2022/01/07 12:48:00;;;;;;;8.00;3.35;;;;;;;;;;5093590;28;20499;-83
2022/01/07 12:50:28;;;;;;;14.15;3.90;;;;;;;;;;5093555;28;20083;-85
2022/01/07 12:52:54;;;;;;;11.40;2.22;;;;;;;;;;5093618;28;20051;-84
2022/01/07 12:55:22;;;;;;;7.90;2.30;;;;;;;;;;5093212;28;20060;-84
2022/01/07 12:57:49;;;;;;;7.28;2.88;;;;;;;;;;5093475;28;20078;-84
2022/01/07 13:00:18;;;;;;;10.45;3.42;;;;;;;;;;5093430;28;20082;-84
2022/01/07 13:02:48;;;;;;;11.00;3.88;;;;;;;;;;5094266;28;20042;-84
2022/01/07 13:05:17;;;;;;;8.57;3.20;;;;;;;;;;5076147;28;20044;-84
2022/01/07 13:07:45;;;;;;;10.63;3.75;;;;;;;;;;5094228;28;20080;-84
2022/01/07 13:10:11;;;;;;;10.07;3.53;;;;;;;;;;5092967;28;20403;-84
2022/01/07 13:12:38;;;;;;;8.65;2.83;;;;;;;;;;5094056;28;20068;-85
2022/01/07 13:15:07;;;;;;;8.02;2.15;;;;;;;;;;5093976;28;20510;-83
2022/01/07 13:17:33;;;;;;;7.95;1.70;;;;;;;;;;5092618;28;20046;-85
2022/01/07 13:19:59;;;;;;;11.20;1.80;;;;;;;;;;5094241;28;20036;-84
2022/01/07 13:22:28;;;;;;;12.10;1.65;;;;;;;;;;5092573;28;20040;-84
2022/01/07 13:24:54;;;;;;;9.45;1.38;;;;;;;;;;5092917;28;20075;-84
2022/01/07 13:27:20;;;;;;;11.20;1.50;;;;;;;;;;5092314;28;20052;-84
2022/01/07 13:29:47;;;;;;;6.35;1.40;;;;;;;;;;5093396;28;20040;-85
2022/01/07 13:32:19;;;;;;;6.90;1.20;;;;;;;;;;5092670;28;20048;-85
2022/01/07 13:34:45;;;;;;;6.00;1.35;;;;;;;;;;5092241;28;20105;-84
2022/01/07 13:37:13;;;;;;;7.45;1.63;;;;;;;;;;5093717;28;20043;-85
2022/01/07 13:39:39;;;;;;;9.02;1.55;;;;;;;;;;5092569;28;20031;-85
2022/01/07 13:42:07;;;;;;;8.20;1.70;;;;;;;;;;5093579;28;20091;-85
2022/01/07 13:44:46;;;;;;;9.10;1.75;;;;;;;;;;5092135;28;20048;-84
2022/01/07 13:47:18;;;;;;;4.55;1.20;;;;;;;;;;5092395;28;20044;-85
2022/01/07 13:49:44;;;;;;;6.03;1.80;;;;;;;;;;5092560;28;20063;-84
2022/01/07 13:52:10;;;;;;;7.78;1.70;;;;;;;;;;5092139;28;20044;-84
2022/01/07 13:54:36;;;;;;;10.05;1.77;;;;;;;;;;5093206;28;20040;-85
2022/01/07 13:57:04;;;;;;;7.93;2.00;;;;;;;;;;5091875;28;20047;-85
2022/01/07 13:59:47;;;;;;;9.35;2.35;;;;;;;;;;5091958;28;20125;-85
2022/01/07 14:02:19;;;;;;;9.63;2.20;;;;;;;;;;5091727;28;20043;-85
2022/01/07 14:04:52;;;;;;;13.43;2.90;;;;;;;;;;5091785;28;20047;-84
2022/01/07 14:07:24;;;;;;;9.40;2.60;;;;;;;;;;5093179;28;20081;-84
2022/01/07 14:10:09;;;;;;;10.27;2.67;;;;;;;;;;5092944;28;20125;-85
2022/01/07 14:12:36;;;;;;;8.60;3.00;;;;;;;;;;5092793;28;20036;-84
2022/01/07 14:15:09;;;;;;;11.13;3.22;;;;;;;;;;5093128;28;20101;-85
2022/01/07 14:17:36;;;;;;;11.20;3.50;;;;;;;;;;5091663;28;20040;-85
2022/01/07 14:20:04;;;;;;;11.00;3.83;;;;;;;;;;5091826;28;20092;-85
2022/01/07 14:22:31;;;;;;;10.65;3.08;;;;;;;;;;5091760;28;20440;-84
2022/01/07 14:24:58;;;;;;;10.50;3.72;;;;;;;;;;5091851;28;20044;-84
2022/01/07 14:27:35;;;;;;;9.25;3.78;;;;;;;;;;5091840;28;20036;-84
2022/01/07 14:30:02;;;;;;;8.40;3.42;;;;;;;;;;5093261;28;20148;-84
2022/01/07 14:32:28;;;;;;;19.67;4.93;;;;;;;;;;5092872;28;20441;-84
2022/01/07 14:34:56;;;;;;;11.43;4.20;;;;;;;;;;5074504;28;20044;-86
2022/01/07 14:37:24;;;;;;;9.15;3.67;;;;;;;;;;5092692;28;20393;-85
2022/01/07 14:39:50;;;;;;;13.02;4.22;;;;;;;;;;5091993;28;20040;-85
2022/01/07 14:42:17;;;;;;;13.27;4.68;;;;;;;;;;5092734;28;20040;-85
2022/01/07 14:44:42;;;;;;;13.48;3.67;;;;;;;;;;5091436;28;20076;-84
2022/01/07 14:47:10;;;;;;;12.38;3.70;;;;;;;;;;5091363;28;20444;-84